Time;durP1;ratioP1;P1;durP2;ratioP2;P2;SDS_P1;SDS_P2;PMS_P1;PMS_P2;Temp;Humidity;BMP_temperature;BMP_pressure;BME280_temperature;BME280_humidity;BME280_pressure;Samples;Min_cycle;Max_cycle;Signal;HPM_P1;HPM_P2
2024/01/28 00:00:37;;;;;;;17.58;8.93;;;;;;;-146.27;82.85;44459.91;5056693;28;20078;-70
2024/01/28 00:03:03;;;;;;;18.30;8.75;;;;;;;-146.27;83.07;44422.09;5066259;28;20393;-70
2024/01/28 00:05:28;;;;;;;24.23;9.75;;;;;;;-146.27;83.50;44418.13;5066377;28;20046;-71
2024/01/28 00:07:54;;;;;;;20.63;8.70;;;;;;;-146.27;82.77;44414.13;5071584;28;20102;-70
2024/01/28 00:10:20;;;;;;;24.45;8.65;;;;;;;-146.27;82.47;44491.75;5073715;28;20024;-70
2024/01/28 00:12:45;;;;;;;21.90;9.48;;;;;;;-146.27;83.17;44455.94;5069639;28;20032;-71
2024/01/28 00:15:11;;;;;;;15.68;8.20;;;;;;;-146.27;83.47;44445.97;5066725;28;20020;-71
2024/01/28 00:17:36;;;;;;;26.02;8.90;;;;;;;-146.27;83.42;44440.00;5071273;28;20101;-71
2024/01/28 00:20:05;;;;;;;23.85;10.07;;;;;;;-146.27;83.67;44420.09;5072949;28;20484;-70
2024/01/28 00:22:31;;;;;;;16.90;8.82;;;;;;;-146.27;83.48;44453.94;5071625;28;20020;-71
2024/01/28 00:24:56;;;;;;;21.83;9.80;;;;;;;-146.27;83.75;44479.81;5072654;28;20028;-70
2024/01/28 00:27:21;;;;;;;20.10;9.75;;;;;;;-146.27;84.18;44416.13;5070107;28;20027;-70
2024/01/28 00:29:47;;;;;;;20.45;9.68;;;;;;;-146.27;83.12;44497.72;5064038;28;20128;-70
2024/01/28 00:32:12;;;;;;;18.00;9.38;;;;;;;-146.27;82.98;44523.56;5064022;28;20028;-70
2024/01/28 00:34:37;;;;;;;16.65;9.20;;;;;;;-146.27;83.23;44481.78;5060071;28;20020;-71
2024/01/28 00:37:03;;;;;;;21.02;9.05;;;;;;;-146.27;84.10;44487.75;5065233;28;20077;-70
2024/01/28 00:39:29;;;;;;;25.05;10.00;;;;;;;-146.27;84.46;44430.06;5068342;28;20059;-70
2024/01/28 00:41:55;;;;;;;19.52;9.02;;;;;;;-146.27;84.36;44461.91;5070245;28;20567;-71
2024/01/28 00:44:20;;;;;;;15.38;9.05;;;;;;;-146.27;84.67;44406.19;5072334;28;20024;-70
2024/01/28 00:46:46;;;;;;;20.67;9.95;;;;;;;-146.27;84.41;44404.19;5071847;28;20488;-70
2024/01/28 00:49:11;;;;;;;21.75;9.00;;;;;;;-146.27;83.88;44493.72;5070403;28;20029;-70
2024/01/28 00:51:37;;;;;;;20.67;9.15;;;;;;;-146.27;84.21;44449.97;5072682;28;20017;-72
2024/01/28 00:54:04;;;;;;;19.33;9.35;;;;;;;-146.27;84.80;44394.25;5065866;28;20032;-71
2024/01/28 00:56:29;;;;;;;18.17;8.65;;;;;;;-146.27;84.75;44350.47;5070664;28;20024;-71
2024/01/28 00:58:55;;;;;;;19.55;9.43;;;;;;;-146.27;84.16;44410.16;5068686;28;20488;-71
2024/01/28 01:01:20;;;;;;;19.65;9.38;;;;;;;-146.27;84.01;44438.00;5071138;28;20036;-71
2024/01/28 01:03:45;;;;;;;20.88;9.65;;;;;;;-146.27;84.10;44414.13;5071074;28;20032;-71
2024/01/28 01:06:11;;;;;;;28.27;10.80;;;;;;;-146.27;84.26;44410.16;5071437;28;20434;-71
2024/01/28 01:08:37;;;;;;;26.33;10.32;;;;;;;-146.27;85.03;44372.34;5071100;28;20032;-70
2024/01/28 01:11:05;;;;;;;19.85;9.82;;;;;;;-146.27;84.56;44374.34;5072710;28;20070;-70
2024/01/28 01:13:32;;;;;;;16.48;9.32;;;;;;;-146.27;84.91;44340.53;5068659;28;20477;-71
2024/01/28 01:15:57;;;;;;;22.25;9.40;;;;;;;-146.27;85.04;44342.50;5066649;28;20025;-71
2024/01/28 01:18:23;;;;;;;21.33;8.20;;;;;;;-146.27;84.88;44332.56;5068072;28;20025;-71
2024/01/28 01:20:49;;;;;;;16.67;8.07;;;;;;;-146.27;84.58;44342.50;5072021;28;20028;-70
2024/01/28 01:23:15;;;;;;;23.30;9.00;;;;;;;-146.27;84.39;44366.38;5069907;28;20113;-71
2024/01/28 01:25:40;;;;;;;18.52;8.93;;;;;;;-146.27;84.18;44350.47;5071891;28;20024;-71
2024/01/28 01:28:06;;;;;;;25.40;9.00;;;;;;;-146.27;84.35;44342.50;5070837;28;20048;-71
2024/01/28 01:30:31;;;;;;;18.90;9.23;;;;;;;-146.27;84.21;44362.41;5070101;28;20102;-70
2024/01/28 01:32:57;;;;;;;17.98;8.15;;;;;;;-146.27;83.75;44334.56;5065443;28;20061;-71
2024/01/28 01:35:23;;;;;;;19.30;8.40;;;;;;;-146.27;83.93;44350.47;5070954;28;20094;-71
2024/01/28 01:37:48;;;;;;;20.85;8.80;;;;;;;-146.27;84.17;44334.56;5071480;28;20020;-71
2024/01/28 01:40:14;;;;;;;21.10;7.70;;;;;;;-146.27;84.18;44336.53;5065547;28;20076;-71
2024/01/28 01:42:42;;;;;;;17.42;8.27;;;;;;;-146.27;84.51;44298.75;5060230;28;20032;-70
2024/01/28 01:45:08;;;;;;;19.27;8.30;;;;;;;-146.27;83.75;44364.41;5068886;28;20024;-71
2024/01/28 01:47:33;;;;;;;17.77;8.60;;;;;;;-146.27;83.68;44360.41;5069016;28;20111;-71
2024/01/28 01:49:59;;;;;;;16.83;7.30;;;;;;;-146.27;83.45;44362.41;5071102;28;20570;-72
2024/01/28 01:52:25;;;;;;;18.02;7.72;;;;;;;-146.27;82.91;44374.34;5062726;28;20171;-70
2024/01/28 01:54:52;;;;;;;23.33;7.95;;;;;;;-146.27;83.02;44410.16;5071187;28;20034;-71
2024/01/28 01:57:19;;;;;;;14.98;7.20;;;;;;;-146.27;83.12;44442.00;5067841;28;20025;-71
2024/01/28 01:59:45;;;;;;;12.07;7.20;;;;;;;-146.27;82.87;44440.00;5069854;28;20411;-71
2024/01/28 02:02:11;;;;;;;16.33;7.25;;;;;;;-146.27;83.01;44428.06;5067987;28;20028;-70
2024/01/28 02:04:38;;;;;;;17.38;7.63;;;;;;;-146.27;83.23;44432.03;5069864;28;20030;-70
2024/01/28 02:07:04;;;;;;;11.25;6.78;;;;;;;-146.27;83.08;44442.00;5069335;28;20456;-71
2024/01/28 02:09:30;;;;;;;17.08;7.57;;;;;;;-146.27;83.38;44414.13;5068965;28;20028;-72
2024/01/28 02:11:55;;;;;;;16.75;6.85;;;;;;;-146.27;82.91;44451.94;5068066;28;20029;-70
2024/01/28 02:14:24;;;;;;;20.45;7.70;;;;;;;-146.27;83.70;44455.94;5069119;28;20019;-71
2024/01/28 02:16:50;;;;;;;16.27;7.38;;;;;;;-146.27;83.09;44463.88;5071296;28;20086;-70
2024/01/28 02:19:17;;;;;;;15.65;6.43;;;;;;;-146.27;83.15;44434.03;5070978;28;20020;-71
2024/01/28 02:21:42;;;;;;;12.15;7.13;;;;;;;-146.27;82.98;44487.75;5070662;28;20028;-72
2024/01/28 02:24:07;;;;;;;17.27;7.15;;;;;;;-146.27;82.79;44497.72;5065577;28;20013;-71
2024/01/28 02:26:33;;;;;;;20.80;8.30;;;;;;;-146.27;82.82;44505.66;5070628;28;20039;-70
2024/01/28 02:28:58;;;;;;;22.33;7.70;;;;;;;-146.27;83.46;44505.66;5070927;28;20068;-71
2024/01/28 02:31:24;;;;;;;15.57;6.75;;;;;;;-146.27;83.57;44505.66;5070449;28;20035;-71
2024/01/28 02:33:49;;;;;;;23.50;7.90;;;;;;;-146.27;83.58;44487.75;5067917;28;20024;-71
2024/01/28 02:36:15;;;;;;;14.00;7.13;;;;;;;-146.27;83.49;44503.69;5070769;28;20472;-71
2024/01/28 02:38:40;;;;;;;17.20;7.45;;;;;;;-146.27;83.49;44469.84;5069751;28;20031;-70
2024/01/28 02:41:06;;;;;;;21.45;7.80;;;;;;;-146.27;83.35;44519.59;5057805;28;20031;-70
2024/01/28 02:43:31;;;;;;;27.25;7.50;;;;;;;-146.27;83.43;44497.72;5071082;28;20029;-71
2024/01/28 02:45:56;;;;;;;23.80;8.65;;;;;;;-146.27;83.72;44501.69;5068342;28;20476;-71
2024/01/28 02:48:21;;;;;;;22.27;7.38;;;;;;;-146.27;83.77;44495.72;5069854;28;20488;-70
2024/01/28 02:50:47;;;;;;;24.38;7.53;;;;;;;-146.27;83.92;44469.84;5070697;28;20472;-70
2024/01/28 02:53:12;;;;;;;14.65;8.05;;;;;;;-146.27;83.42;44465.88;5068596;28;20094;-70
2024/01/28 02:55:38;;;;;;;18.08;7.82;;;;;;;-146.27;82.87;44513.63;5070075;28;20050;-71
2024/01/28 02:58:03;;;;;;;22.38;7.57;;;;;;;-146.27;82.98;44509.66;5062700;28;20083;-70
2024/01/28 03:00:29;;;;;;;16.35;8.40;;;;;;;-146.27;83.13;44475.81;5068332;28;20020;-71
2024/01/28 03:02:55;;;;;;;17.65;8.07;;;;;;;-146.27;83.33;44469.84;5068977;28;20097;-71
2024/01/28 03:05:20;;;;;;;17.17;7.65;;;;;;;-146.27;83.20;44495.72;5066344;28;20401;-70
2024/01/28 03:07:46;;;;;;;18.83;7.82;;;;;;;-146.27;83.03;44505.66;5056410;28;20064;-72
2024/01/28 03:10:11;;;;;;;24.15;7.15;;;;;;;-146.27;82.96;44493.72;5067580;28;20048;-72
2024/01/28 03:12:37;;;;;;;15.50;7.28;;;;;;;-146.27;82.50;44551.44;5067537;28;20024;-71
2024/01/28 03:15:03;;;;;;;20.83;8.77;;;;;;;-146.27;82.63;44507.66;5069077;28;20059;-71
2024/01/28 03:17:28;;;;;;;22.95;7.40;;;;;;;-146.27;82.28;44539.50;5063928;28;20036;-71
2024/01/28 03:19:54;;;;;;;13.52;6.80;;;;;;;-146.27;82.47;44545.47;5070025;28;20028;-71
2024/01/28 03:22:19;;;;;;;18.27;7.30;;;;;;;-146.27;82.49;44521.59;5066927;28;20028;-70
2024/01/28 03:24:47;;;;;;;17.60;7.60;;;;;;;-146.27;82.40;44573.31;5068526;28;20021;-71
2024/01/28 03:27:12;;;;;;;23.95;9.07;;;;;;;-146.27;82.53;44549.44;5069073;28;20027;-71
2024/01/28 03:29:38;;;;;;;16.30;9.02;;;;;;;-146.27;82.10;44573.31;5068023;28;20044;-71
2024/01/28 03:32:04;;;;;;;25.45;9.52;;;;;;;-146.27;82.16;44569.34;5067302;28;20051;-71
2024/01/28 03:34:29;;;;;;;28.88;10.02;;;;;;;-146.27;82.41;44583.28;5068792;28;20052;-71
2024/01/28 03:36:55;;;;;;;27.20;10.15;;;;;;;-146.27;82.04;44581.28;5068044;28;20085;-71
2024/01/28 03:39:20;;;;;;;32.83;11.45;;;;;;;-146.27;82.44;44597.19;5060319;28;20469;-71
2024/01/28 03:41:45;;;;;;;24.05;10.43;;;;;;;-146.27;82.07;44589.25;5065923;28;20582;-71
2024/01/28 03:44:11;;;;;;;18.85;9.20;;;;;;;-146.27;82.47;44640.97;5068576;28;20483;-71
2024/01/28 03:46:38;;;;;;;23.17;9.00;;;;;;;-146.27;82.55;44589.25;5069162;28;20052;-71
2024/01/28 03:49:04;;;;;;;19.00;8.48;;;;;;;-146.27;82.36;44595.22;5068845;28;20469;-70
2024/01/28 03:51:30;;;;;;;23.10;9.10;;;;;;;-146.27;82.34;44589.25;5066665;28;20116;-72
2024/01/28 03:53:57;;;;;;;20.60;8.30;;;;;;;-146.27;82.49;44621.06;5069632;28;20070;-70
2024/01/28 03:56:23;;;;;;;18.83;8.95;;;;;;;-146.27;82.63;44593.22;5067423;28;20036;-71
2024/01/28 03:58:48;;;;;;;25.33;8.95;;;;;;;-146.27;82.60;44603.16;5064155;28;20447;-71
2024/01/28 04:01:14;;;;;;;21.30;8.32;;;;;;;-146.27;82.79;44587.25;5066163;28;20025;-70
2024/01/28 04:03:39;;;;;;;21.00;8.48;;;;;;;-146.27;82.78;44587.25;5068766;28;20069;-71
2024/01/28 04:06:05;;;;;;;20.70;8.93;;;;;;;-146.27;82.58;44585.25;5067276;28;20145;-70
2024/01/28 04:08:30;;;;;;;19.73;8.48;;;;;;;-146.27;82.53;44609.13;5067628;28;20426;-70
2024/01/28 04:10:56;;;;;;;18.17;7.28;;;;;;;-146.27;82.45;44587.25;5067000;28;20036;-71
2024/01/28 04:13:21;;;;;;;19.83;8.43;;;;;;;-146.27;82.35;44603.16;5062668;28;20079;-71
2024/01/28 04:15:46;;;;;;;17.10;8.68;;;;;;;-146.27;82.43;44637.00;5069033;28;20035;-70
2024/01/28 04:18:12;;;;;;;27.60;8.77;;;;;;;-146.27;82.69;44623.06;5062716;28;20085;-71
2024/01/28 04:20:37;;;;;;;18.40;7.90;;;;;;;-146.27;82.72;44629.03;5068269;28;20071;-71
2024/01/28 04:23:02;;;;;;;14.38;8.02;;;;;;;-146.27;82.46;44633.00;5063385;28;20029;-71
2024/01/28 04:25:28;;;;;;;18.00;8.80;;;;;;;-146.27;82.55;44629.03;5069297;28;20017;-70
2024/01/28 04:27:53;;;;;;;17.52;7.63;;;;;;;-146.27;82.77;44617.09;5055835;28;20028;-72
2024/01/28 04:30:19;;;;;;;19.23;7.72;;;;;;;-146.27;82.65;44613.13;5065756;28;20031;-71
2024/01/28 04:32:44;;;;;;;24.25;9.13;;;;;;;-146.27;82.56;44621.06;5067206;28;20384;-71
2024/01/28 04:35:11;;;;;;;15.13;7.07;;;;;;;-146.27;82.25;44638.97;5067987;28;20396;-71
2024/01/28 04:37:36;;;;;;;12.68;6.93;;;;;;;-146.27;82.38;44650.94;5068280;28;20021;-69
2024/01/28 04:40:02;;;;;;;19.77;6.85;;;;;;;-146.27;82.28;44642.97;5063851;28;20056;-71
2024/01/28 04:42:27;;;;;;;20.48;6.70;;;;;;;-146.27;82.24;44640.97;5059367;28;20381;-71
2024/01/28 04:44:52;;;;;;;15.82;7.15;;;;;;;-146.27;82.22;44625.06;5066551;28;20025;-71
2024/01/28 04:47:18;;;;;;;19.85;6.93;;;;;;;-146.27;82.51;44648.94;5066031;28;20464;-71
2024/01/28 04:49:43;;;;;;;12.77;6.38;;;;;;;-146.27;82.33;44621.06;5069428;28;20028;-72
2024/01/28 04:52:09;;;;;;;20.65;6.50;;;;;;;-146.27;82.25;44617.09;5067775;28;20056;-71
2024/01/28 04:54:35;;;;;;;17.45;6.25;;;;;;;-146.27;82.10;44637.00;5072878;28;20031;-71
2024/01/28 04:57:01;;;;;;;24.48;6.47;;;;;;;-146.27;82.20;44637.00;5070615;28;20266;-71
2024/01/28 04:59:27;;;;;;;17.48;6.18;;;;;;;-146.27;82.14;44650.94;5069488;28;20480;-71
2024/01/28 05:01:54;;;;;;;15.57;6.57;;;;;;;-146.27;82.28;44660.88;5064500;28;20031;-71
2024/01/28 05:04:19;;;;;;;20.52;6.60;;;;;;;-146.27;82.04;44664.84;5069228;28;20021;-71
2024/01/28 05:06:45;;;;;;;21.88;6.45;;;;;;;-146.27;82.01;44692.72;5064464;28;20020;-71
2024/01/28 05:09:10;;;;;;;13.63;6.57;;;;;;;-146.27;82.04;44656.91;5068744;28;20064;-71
2024/01/28 05:11:36;;;;;;;17.33;6.50;;;;;;;-146.27;81.72;44668.84;5062780;28;20056;-69
2024/01/28 05:14:01;;;;;;;17.13;6.75;;;;;;;-146.27;81.73;44684.75;5062213;28;20535;-71
2024/01/28 05:16:27;;;;;;;15.48;7.07;;;;;;;-146.27;81.51;44680.78;5061719;28;20366;-71
2024/01/28 05:18:53;;;;;;;15.55;7.22;;;;;;;-146.27;81.23;44712.59;5065060;28;20481;-72
2024/01/28 05:21:18;;;;;;;15.02;6.47;;;;;;;-146.27;81.22;44712.59;5070846;28;20024;-71
2024/01/28 05:23:45;;;;;;;21.23;7.07;;;;;;;-146.27;80.85;44724.56;5072009;28;20028;-71
2024/01/28 05:26:11;;;;;;;15.68;6.45;;;;;;;-146.27;81.21;44724.56;5072427;28;20016;-71
2024/01/28 05:28:36;;;;;;;13.90;6.35;;;;;;;-146.27;80.60;44748.44;5071546;28;20075;-71
2024/01/28 05:31:02;;;;;;;19.75;6.55;;;;;;;-146.27;80.94;44764.34;5071294;28;20024;-70
2024/01/28 05:33:28;;;;;;;16.63;6.18;;;;;;;-146.27;80.54;44776.28;5072298;28;20028;-71
2024/01/28 05:35:53;;;;;;;12.77;6.85;;;;;;;-146.27;80.45;44772.31;5071363;28;20037;-71
2024/01/28 05:38:19;;;;;;;14.15;6.63;;;;;;;-146.27;80.31;44776.28;5064713;28;20059;-71
2024/01/28 05:40:44;;;;;;;12.75;7.22;;;;;;;-146.27;80.51;44772.31;5067438;28;20048;-71
2024/01/28 05:43:09;;;;;;;12.68;6.35;;;;;;;-146.27;80.15;44794.19;5071613;28;20079;-71
2024/01/28 05:45:35;;;;;;;11.32;5.93;;;;;;;-146.27;80.29;44806.13;5070983;28;20526;-71
2024/01/28 05:48:03;;;;;;;13.73;6.78;;;;;;;-146.27;79.87;44812.09;5071524;28;20036;-71
2024/01/28 05:50:29;;;;;;;15.65;6.22;;;;;;;-146.27;80.13;44784.25;5063265;28;20020;-71
2024/01/28 05:52:55;;;;;;;14.43;7.18;;;;;;;-146.27;80.24;44810.13;5057452;28;20125;-71
2024/01/28 05:55:20;;;;;;;16.60;6.53;;;;;;;-146.27;79.94;44792.22;5072243;28;20051;-74
2024/01/28 05:57:46;;;;;;;18.35;6.95;;;;;;;-146.27;79.96;44824.03;5068205;28;20064;-70
2024/01/28 06:00:12;;;;;;;12.57;6.68;;;;;;;-146.27;79.80;44832.00;5070736;28;20039;-71
2024/01/28 06:02:37;;;;;;;16.52;7.18;;;;;;;-146.27;79.82;44824.03;5070472;28;20028;-71
2024/01/28 06:05:03;;;;;;;14.95;7.40;;;;;;;-146.27;79.72;44863.84;5067397;28;20032;-71
2024/01/28 06:07:29;;;;;;;14.60;6.85;;;;;;;-146.27;79.68;44861.84;5058499;28;20013;-71
2024/01/28 06:09:54;;;;;;;14.05;7.03;;;;;;;-146.27;80.04;44847.91;5065150;28;20131;-72
2024/01/28 06:12:19;;;;;;;17.65;7.05;;;;;;;-146.27;80.13;44867.81;5069472;28;20232;-72
2024/01/28 06:14:45;;;;;;;19.83;7.07;;;;;;;-146.27;80.33;44832.00;5069453;28;20052;-71
2024/01/28 06:17:10;;;;;;;13.90;6.80;;;;;;;-146.27;79.76;44847.91;5070114;28;20021;-72
2024/01/28 06:19:36;;;;;;;19.90;7.55;;;;;;;-146.27;79.88;44849.91;5069865;28;20437;-70
2024/01/28 06:22:02;;;;;;;14.52;6.82;;;;;;;-146.27;80.00;44863.84;5070307;28;20031;-70
2024/01/28 06:24:30;;;;;;;12.52;6.85;;;;;;;-146.27;79.90;44871.81;5069300;28;20396;-71
2024/01/28 06:26:55;;;;;;;12.32;6.43;;;;;;;-146.27;79.97;44893.69;5068617;28;20064;-70
2024/01/28 06:29:21;;;;;;;16.85;7.93;;;;;;;-146.27;79.59;44881.75;5065792;28;20157;-71
2024/01/28 06:31:46;;;;;;;23.52;7.50;;;;;;;-146.27;80.10;44871.81;5069292;28;20485;-71
2024/01/28 06:34:11;;;;;;;14.57;7.70;;;;;;;-146.27;80.15;44875.78;5066325;28;20495;-71
2024/01/28 06:36:37;;;;;;;19.05;6.82;;;;;;;-146.27;79.88;44867.81;5065025;28;20024;-71
2024/01/28 06:39:02;;;;;;;15.60;7.97;;;;;;;-146.27;80.07;44877.78;5064537;28;20435;-72
2024/01/28 06:41:27;;;;;;;16.30;7.60;;;;;;;-146.27;80.26;44883.75;5063489;28;20060;-71
2024/01/28 06:43:53;;;;;;;20.08;8.15;;;;;;;-146.27;79.99;44873.78;5068838;28;20086;-71
2024/01/28 06:46:19;;;;;;;17.80;8.20;;;;;;;-146.27;80.28;44891.69;5069016;28;20020;-72
2024/01/28 06:48:45;;;;;;;14.45;7.22;;;;;;;-146.27;79.88;44881.75;5070216;28;20055;-71
2024/01/28 06:51:10;;;;;;;15.13;7.70;;;;;;;-146.27;80.01;44879.75;5069633;28;20052;-71
2024/01/28 06:53:37;;;;;;;17.02;7.95;;;;;;;-146.27;80.04;44873.78;5060842;28;20636;-71
2024/01/28 06:56:02;;;;;;;17.67;8.18;;;;;;;-146.27;80.16;44895.69;5066051;28;20029;-69
2024/01/28 06:58:27;;;;;;;15.35;7.43;;;;;;;-146.27;79.96;44923.53;5061950;28;20048;-71
2024/01/28 07:00:53;;;;;;;18.80;7.57;;;;;;;-146.27;79.91;44915.59;5069329;28;20035;-70
2024/01/28 07:03:19;;;;;;;17.20;7.38;;;;;;;-146.27;79.83;44899.66;5065619;28;20032;-71
2024/01/28 07:05:45;;;;;;;13.95;7.05;;;;;;;-146.27;79.79;44899.66;5069206;28;20032;-71
2024/01/28 07:08:10;;;;;;;18.38;7.72;;;;;;;-146.27;79.94;44901.66;5069706;28;20016;-72
2024/01/28 07:10:36;;;;;;;15.40;7.03;;;;;;;-146.27;79.87;44895.69;5066320;28;20028;-71
2024/01/28 07:13:03;;;;;;;18.52;8.13;;;;;;;-146.27;79.54;44917.56;5059508;28;20029;-72
2024/01/28 07:15:31;;;;;;;17.83;8.30;;;;;;;-146.27;79.61;44905.63;5069252;28;20480;-71
2024/01/28 07:17:57;;;;;;;16.90;6.68;;;;;;;-146.27;79.50;44923.53;5068790;28;20074;-71
2024/01/28 07:20:22;;;;;;;19.38;7.68;;;;;;;-146.27;79.79;44941.44;5061022;28;20032;-71
2024/01/28 07:22:47;;;;;;;17.02;7.68;;;;;;;-146.27;79.64;44915.59;5056119;28;20028;-72
2024/01/28 07:25:13;;;;;;;13.57;7.07;;;;;;;-146.27;79.36;44947.41;5067200;28;20020;-73
2024/01/28 07:27:39;;;;;;;15.90;7.25;;;;;;;-146.27;79.33;44947.41;5058123;28;20028;-72
2024/01/28 07:30:06;;;;;;;18.08;7.70;;;;;;;-146.27;79.21;44983.25;5066399;28;20114;-72
2024/01/28 07:32:31;;;;;;;18.10;7.30;;;;;;;-146.27;79.39;44997.16;5068768;28;20401;-73
2024/01/28 07:34:57;;;;;;;15.15;7.40;;;;;;;-146.27;79.05;44981.25;5069203;28;20036;-71
2024/01/28 07:37:22;;;;;;;15.98;7.00;;;;;;;-146.27;79.35;44995.19;5068364;28;20107;-73
2024/01/28 07:39:48;;;;;;;14.35;7.13;;;;;;;-146.27;79.15;45023.03;5070273;28;20522;-72
2024/01/28 07:42:13;;;;;;;16.63;7.00;;;;;;;-146.27;79.21;45025.03;5056957;28;20117;-73
2024/01/28 07:44:39;;;;;;;14.85;7.22;;;;;;;-146.27;79.12;45040.94;5062046;28;20020;-72
2024/01/28 07:47:04;;;;;;;16.13;6.70;;;;;;;-146.27;79.32;45027.03;5068392;28;20027;-72
2024/01/28 07:49:30;;;;;;;13.80;6.53;;;;;;;-146.27;78.77;45064.84;5065776;28;20055;-72
2024/01/28 07:51:55;;;;;;;10.75;6.47;;;;;;;-146.27;78.63;45080.75;5063722;28;20631;-73
2024/01/28 07:54:21;;;;;;;16.33;7.18;;;;;;;-146.27;78.43;45114.59;5068929;28;20068;-72
2024/01/28 07:56:46;;;;;;;13.30;7.15;;;;;;;-146.27;78.42;45160.34;5088327;28;20036;-72
2024/01/28 07:59:11;;;;;;;12.57;7.35;;;;;;;-146.27;78.33;45142.44;5071858;28;20024;-71
2024/01/28 08:01:37;;;;;;;11.13;6.38;;;;;;;-146.27;78.08;45176.28;5067904;28;21127;-71
2024/01/28 08:04:02;;;;;;;14.23;5.68;;;;;;;-146.27;77.98;45192.19;5062935;28;20059;-72
2024/01/28 08:06:28;;;;;;;14.10;7.00;;;;;;;-146.27;78.04;45235.97;5059601;28;20589;-72
2024/01/28 08:08:53;;;;;;;17.55;7.45;;;;;;;-146.27;77.43;45234.00;5063069;28;20086;-72
2024/01/28 08:11:19;;;;;;;18.90;7.78;;;;;;;-146.27;77.70;45263.84;5061060;28;20025;-71
2024/01/28 08:13:45;;;;;;;11.32;6.70;;;;;;;-146.27;77.81;45257.88;5066529;28;20071;-72
2024/01/28 08:16:10;;;;;;;13.10;6.60;;;;;;;-146.27;77.84;45289.72;5060978;28;20040;-72
2024/01/28 08:18:35;;;;;;;17.33;7.28;;;;;;;-146.27;77.92;45279.75;5060664;28;20036;-71
2024/01/28 08:21:01;;;;;;;20.40;7.03;;;;;;;-146.27;77.53;45317.56;5061979;28;20061;-72
2024/01/28 08:23:26;;;;;;;20.02;7.07;;;;;;;-146.27;77.72;45329.53;5069289;28;20389;-72
2024/01/28 08:25:55;;;;;;;15.75;6.93;;;;;;;-146.27;77.58;45287.72;5068808;28;20399;-71
2024/01/28 08:28:21;;;;;;;15.50;6.60;;;;;;;-146.27;77.32;45337.47;5062425;28;20078;-72
2024/01/28 08:30:47;;;;;;;14.93;6.07;;;;;;;-146.27;77.37;45357.38;5064196;28;20076;-70
2024/01/28 08:33:15;;;;;;;12.57;5.88;;;;;;;-146.27;77.26;45337.47;5064874;28;20020;-72
2024/01/28 08:35:41;;;;;;;13.27;6.57;;;;;;;-146.27;77.25;45373.31;5062407;28;20127;-71
2024/01/28 08:38:06;;;;;;;14.10;5.78;;;;;;;-146.27;76.91;45377.28;5061031;28;20124;-72
2024/01/28 08:40:32;;;;;;;15.57;6.35;;;;;;;-146.27;76.76;45381.25;5062438;28;20032;-73
2024/01/28 08:42:57;;;;;;;13.90;6.72;;;;;;;-146.27;76.71;45371.31;5062567;28;20468;-72
2024/01/28 08:45:23;;;;;;;10.88;6.05;;;;;;;-146.27;76.27;45409.13;5066928;28;20037;-73
2024/01/28 08:47:48;;;;;;;13.90;6.22;;;;;;;-146.27;76.16;45413.09;5065527;28;20024;-72
2024/01/28 08:50:14;;;;;;;15.55;6.78;;;;;;;-146.27;75.89;45423.06;5069454;28;20095;-72
2024/01/28 08:52:41;;;;;;;10.77;6.15;;;;;;;-146.27;75.82;45437.00;5073447;28;20034;-73
2024/01/28 08:55:07;;;;;;;11.50;6.13;;;;;;;-146.27;75.79;45440.97;5066586;28;20405;-72
2024/01/28 08:57:32;;;;;;;14.02;6.60;;;;;;;-146.27;75.73;45444.94;5071088;28;20401;-72
2024/01/28 08:59:57;;;;;;;14.60;5.65;;;;;;;-146.27;75.49;45440.97;5070572;28;20029;-71
2024/01/28 09:02:23;;;;;;;10.40;6.28;;;;;;;-146.27;75.10;45466.84;5071966;28;20027;-71
2024/01/28 09:04:48;;;;;;;11.45;6.57;;;;;;;-146.27;75.04;45438.97;5071408;28;20389;-72
2024/01/28 09:07:13;;;;;;;14.98;6.18;;;;;;;-146.27;74.68;45464.84;5068299;28;20410;-72
2024/01/28 09:09:39;;;;;;;11.98;6.07;;;;;;;-146.27;74.69;45492.72;5069088;28;20028;-71
2024/01/28 09:12:05;;;;;;;20.58;6.45;;;;;;;-146.27;74.80;45478.78;5065997;28;20085;-72
2024/01/28 09:14:30;;;;;;;8.55;5.65;;;;;;;-146.27;74.69;45482.78;5064644;28;20021;-72
2024/01/28 09:16:56;;;;;;;9.82;5.70;;;;;;;-146.27;74.33;45526.56;5064202;28;20055;-72
2024/01/28 09:19:21;;;;;;;17.02;5.95;;;;;;;-146.27;74.16;45516.59;5069790;28;20308;-72
2024/01/28 09:21:46;;;;;;;12.05;5.57;;;;;;;-146.27;74.16;45538.50;5069553;28;20029;-72
2024/01/28 09:24:12;;;;;;;11.75;6.20;;;;;;;-146.27;73.50;45544.47;5066591;28;20531;-73
2024/01/28 09:26:37;;;;;;;13.25;6.05;;;;;;;-146.27;73.25;45526.56;5077256;28;20381;-72
2024/01/28 09:29:02;;;;;;;11.30;5.85;;;;;;;-146.27;72.93;45502.66;5060989;28;20136;-71
2024/01/28 09:31:29;;;;;;;10.07;5.70;;;;;;;-146.27;72.32;45542.47;5072246;28;20430;-72
2024/01/28 09:33:54;;;;;;;13.50;6.05;;;;;;;-146.27;71.58;45572.34;5071052;28;20082;-72
2024/01/28 09:36:19;;;;;;;12.48;5.57;;;;;;;-146.27;70.49;45588.25;5073987;28;20032;-72
2024/01/28 09:38:45;;;;;;;13.02;5.50;;;;;;;-146.27;69.85;45580.28;5058389;28;20024;-72
2024/01/28 09:41:21;;;;;;;13.60;6.13;;;;;;;-146.27;69.26;45600.19;5069056;28;20499;-75
2024/01/28 09:43:46;;;;;;;11.73;5.50;;;;;;;-146.27;68.84;45620.09;5063730;28;20052;-71
2024/01/28 09:46:12;;;;;;;8.25;5.45;;;;;;;-146.27;67.82;45636.03;5067476;28;20063;-71
2024/01/28 09:48:39;;;;;;;11.88;5.53;;;;;;;-146.27;66.85;45671.84;5064406;28;20385;-71
2024/01/28 09:51:08;;;;;;;12.23;4.30;;;;;;;-146.27;66.62;45659.91;5066598;28;20074;-72
2024/01/28 09:53:33;;;;;;;11.70;5.32;;;;;;;-146.27;65.62;45697.72;5065751;28;20044;-71
2024/01/28 09:55:59;;;;;;;8.43;4.53;;;;;;;-146.27;65.29;45733.56;5061069;28;20060;-71
2024/01/28 09:58:25;;;;;;;12.38;5.30;;;;;;;-146.27;64.29;45737.53;5069950;28;20078;-71
2024/01/28 10:00:51;;;;;;;12.13;5.05;;;;;;;-146.27;64.08;45761.41;5064767;28;21147;-71
2024/01/28 10:03:16;;;;;;;12.65;4.43;;;;;;;-146.27;64.18;45723.59;5066087;28;20028;-72
2024/01/28 10:05:41;;;;;;;12.80;5.20;;;;;;;-146.27;63.59;45811.19;5064282;28;20031;-72
2024/01/28 10:08:07;;;;;;;17.80;6.30;;;;;;;-146.27;63.73;45743.50;5069885;28;20112;-72
2024/01/28 10:10:35;;;;;;;13.95;5.22;;;;;;;-146.27;62.52;45771.38;5068524;28;20020;-71
2024/01/28 10:13:03;;;;;;;8.82;5.35;;;;;;;-146.27;61.71;45767.38;5062726;28;20029;-72
2024/01/28 10:15:30;;;;;;;9.88;4.68;;;;;;;-146.27;61.34;45799.22;5059749;28;20038;-71
2024/01/28 10:17:56;;;;;;;10.68;4.45;;;;;;;-146.27;60.06;45866.91;5069041;28;20082;-72
2024/01/28 10:20:23;;;;;;;8.93;4.50;;;;;;;-146.27;59.70;45843.03;5063368;28;20033;-71
2024/01/28 10:22:49;;;;;;;12.73;5.15;;;;;;;-146.27;59.21;45841.03;5067190;28;20040;-71
2024/01/28 10:25:16;;;;;;;11.45;4.78;;;;;;;-146.27;59.05;45854.97;5066637;28;20397;-71
2024/01/28 10:27:43;;;;;;;6.78;4.80;;;;;;;-146.27;57.66;45866.91;5067397;28;20028;-71
2024/01/28 10:30:09;;;;;;;10.95;4.60;;;;;;;-146.27;57.45;45878.84;5064271;28;20046;-73
2024/01/28 10:32:35;;;;;;;7.38;4.18;;;;;;;-146.27;56.60;45890.78;5068848;28;20089;-73
2024/01/28 10:35:00;;;;;;;10.35;4.88;;;;;;;-146.27;55.29;45874.88;5059303;28;20423;-72
2024/01/28 10:37:32;;;;;;;7.90;4.20;;;;;;;-146.27;55.87;45898.75;5068934;28;20107;-72
2024/01/28 10:40:08;;;;;;;10.73;4.75;;;;;;;-146.27;54.27;45890.78;5068670;28;20103;-72
2024/01/28 10:42:38;;;;;;;11.65;4.25;;;;;;;-146.27;52.75;45886.81;5069032;28;20085;-72
2024/01/28 10:45:07;;;;;;;9.95;4.45;;;;;;;-146.27;52.70;45930.59;5070315;28;20073;-73
2024/01/28 10:47:35;;;;;;;8.50;4.20;;;;;;;-146.27;51.43;45962.44;5069584;28;20020;-72
2024/01/28 10:50:05;;;;;;;7.97;4.10;;;;;;;-146.27;51.10;45914.69;5069622;28;20476;-72
2024/01/28 10:52:32;;;;;;;6.70;3.70;;;;;;;-146.27;49.38;46008.22;5060900;28;20113;-72
2024/01/28 10:54:59;;;;;;;7.88;4.05;;;;;;;-146.27;48.76;45978.38;5065321;28;20036;-72
2024/01/28 10:57:27;;;;;;;13.07;4.25;;;;;;;-146.27;47.23;46046.06;5068160;28;20032;-73
2024/01/28 10:59:53;;;;;;;7.82;4.22;;;;;;;-146.27;47.83;46020.19;5067901;28;20321;-72
2024/01/28 11:02:20;;;;;;;7.22;3.70;;;;;;;-146.27;46.68;46042.06;5070196;28;20514;-72